Crandalls Lodge, Iowa
Current Conditions -  °F | °C
As of 8:53 AM on Thursday 30 Oct 2014 (Local Time) from KMJQ Reporting Station
Overcast Overcast  
Wind Chill: 43°   Ceiling: 11000
Heat Index: 43°   Visibility: 10mi
Dew Point: 34°   Wind: 3mph
Humidity: 70%   Direction: 120°ESE
Pressure: 30.01"   Gusts: NA
Location:  43.4265°N, 95.1547°W
Report Text: KMJQ 301353Z AUTO 12003KT 10SM OVC110 06/01 A3001 RMK AO2
Loading
Personal Weather Stations






























Interactive Weather Map New forecast layout! Learn more

10-Day Weather Forecast

Advertisements
Track Severe Weather on mobile